createdAt,value
2018-07-25T00:00:25.456Z,917.64
2018-07-25T00:01:25.479Z,917.58
2018-07-25T00:02:25.602Z,917.61
2018-07-25T00:03:25.366Z,917.58
2018-07-25T00:04:25.347Z,917.58
2018-07-25T00:05:25.305Z,917.62
2018-07-25T00:06:25.276Z,917.57
2018-07-25T00:07:25.261Z,917.62
2018-07-25T00:08:25.237Z,917.59
2018-07-25T00:09:25.233Z,917.61
2018-07-25T00:10:25.165Z,917.56
2018-07-25T00:11:25.125Z,917.56
2018-07-25T00:12:25.090Z,917.60
2018-07-25T00:13:25.153Z,917.60
2018-07-25T00:14:25.077Z,917.59
2018-07-25T00:15:25.031Z,917.63
2018-07-25T00:16:24.960Z,917.65
2018-07-25T00:17:25.136Z,917.65
2018-07-25T00:18:24.906Z,917.69
2018-07-25T00:19:24.873Z,917.66
2018-07-25T00:20:24.845Z,917.65
2018-07-25T00:21:24.843Z,917.68
2018-07-25T00:22:24.771Z,917.67
2018-07-25T00:23:24.951Z,917.68
2018-07-25T00:24:24.709Z,917.70
2018-07-25T00:25:24.695Z,917.69
2018-07-25T00:26:24.654Z,917.71
2018-07-25T00:27:24.618Z,917.71
2018-07-25T00:28:24.582Z,917.73
2018-07-25T00:29:24.555Z,917.69
2018-07-25T00:30:24.524Z,917.69
2018-07-25T00:31:24.496Z,917.75
2018-07-25T00:32:24.445Z,917.74
2018-07-25T00:33:24.435Z,917.73
2018-07-25T00:34:24.399Z,917.73
2018-07-25T00:35:24.376Z,917.74
2018-07-25T00:36:24.370Z,917.77
2018-07-25T00:37:24.295Z,917.75
2018-07-25T00:38:24.272Z,917.76
2018-07-25T00:40:24.202Z,917.78
2018-07-25T00:41:24.176Z,917.80
2018-07-25T00:42:24.145Z,917.81
2018-07-25T00:43:24.110Z,917.79
2018-07-25T00:44:24.091Z,917.83
2018-07-25T00:45:24.050Z,917.84
2018-07-25T00:46:24.015Z,917.82
2018-07-25T00:47:24.061Z,917.81
2018-07-25T00:48:23.961Z,917.83
2018-07-25T00:49:23.927Z,917.87
2018-07-25T00:51:23.860Z,917.86
2018-07-25T00:52:23.826Z,917.88
2018-07-25T00:53:23.798Z,917.89
2018-07-25T00:54:23.773Z,917.89
2018-07-25T00:55:23.776Z,917.88
2018-07-25T00:56:23.713Z,917.89
2018-07-25T00:57:23.673Z,917.90
2018-07-25T00:58:23.650Z,917.89
2018-07-25T00:59:23.618Z,917.86
2018-07-25T01:00:23.736Z,917.86
2018-07-25T01:01:23.543Z,917.90
2018-07-25T01:02:23.502Z,917.94
2018-07-25T01:03:23.481Z,917.90
2018-07-25T01:04:23.470Z,917.93
2018-07-25T01:05:23.467Z,917.94
2018-07-25T01:06:23.392Z,917.91
2018-07-25T01:07:23.354Z,917.90
2018-07-25T01:08:23.345Z,917.89
2018-07-25T01:09:23.296Z,917.91
2018-07-25T01:10:23.258Z,917.88
2018-07-25T01:11:23.439Z,917.86
2018-07-25T01:12:23.195Z,917.87
2018-07-25T01:13:23.178Z,917.85
2018-07-25T01:14:23.137Z,917.84
2018-07-25T01:15:23.182Z,917.79
2018-07-25T01:17:23.031Z,917.81
2018-07-25T01:18:23.041Z,917.83
2018-07-25T01:19:22.975Z,917.78
2018-07-25T01:20:23.031Z,917.82
2018-07-25T01:21:22.919Z,917.83
2018-07-25T01:22:22.879Z,917.79
2018-07-25T01:23:22.851Z,917.80
2018-07-25T01:24:22.816Z,917.80
2018-07-25T01:25:22.806Z,917.79
2018-07-25T01:26:22.751Z,917.80
2018-07-25T01:27:22.738Z,917.82
2018-07-25T01:28:22.708Z,917.81
2018-07-25T01:29:22.652Z,917.82
2018-07-25T01:30:22.626Z,917.78
2018-07-25T01:31:22.774Z,917.77
2018-07-25T01:32:22.573Z,917.79
2018-07-25T01:33:22.522Z,917.79
2018-07-25T01:34:22.518Z,917.81
2018-07-25T01:35:22.463Z,917.80
2018-07-25T01:36:22.443Z,917.80
2018-07-25T01:38:22.380Z,917.77
2018-07-25T01:39:22.337Z,917.78
2018-07-25T01:40:22.308Z,917.80
2018-07-25T01:41:22.280Z,917.79
2018-07-25T01:42:22.243Z,917.77
2018-07-25T01:43:22.206Z,917.72
2018-07-25T01:44:22.178Z,917.74
2018-07-25T01:45:22.142Z,917.73
2018-07-25T01:46:22.111Z,917.74
2018-07-25T01:47:22.082Z,917.74
2018-07-25T01:48:22.045Z,917.71
2018-07-25T01:49:22.016Z,917.73
2018-07-25T01:50:22.026Z,917.72
2018-07-25T01:51:21.951Z,917.68
2018-07-25T01:53:21.896Z,917.69
2018-07-25T01:54:21.857Z,917.70
2018-07-25T01:55:21.877Z,917.68
2018-07-25T01:57:21.790Z,917.68
2018-07-25T01:58:21.754Z,917.70
2018-07-25T01:59:21.719Z,917.65
2018-07-25T02:00:21.684Z,917.66
2018-07-25T02:01:21.648Z,917.68
2018-07-25T02:02:21.622Z,917.64
2018-07-25T02:03:21.565Z,917.67
2018-07-25T02:04:21.535Z,917.62
2018-07-25T02:05:21.504Z,917.63
2018-07-25T02:06:21.459Z,917.65
2018-07-25T02:07:21.632Z,917.62
2018-07-25T02:08:21.435Z,917.60
2018-07-25T02:09:21.395Z,917.59
2018-07-25T02:10:21.369Z,917.59
2018-07-25T02:11:21.433Z,917.57
2018-07-25T02:12:21.280Z,917.58
2018-07-25T02:13:21.266Z,917.57
2018-07-25T02:14:21.219Z,917.55
2018-07-25T02:15:21.177Z,917.54
2018-07-25T02:16:21.139Z,917.51
2018-07-25T02:17:21.111Z,917.55
2018-07-25T02:18:21.105Z,917.51
2018-07-25T02:19:21.095Z,917.52
2018-07-25T02:20:21.016Z,917.48
2018-07-25T02:21:21.002Z,917.51
2018-07-25T02:22:20.957Z,917.52
2018-07-25T02:23:20.930Z,917.50
2018-07-25T02:24:20.902Z,917.49
2018-07-25T02:25:20.853Z,917.43
2018-07-25T02:26:20.825Z,917.47
2018-07-25T02:27:20.791Z,917.46
2018-07-25T02:28:20.772Z,917.46
2018-07-25T02:29:20.739Z,917.46
2018-07-25T02:30:20.725Z,917.47
2018-07-25T02:31:20.674Z,917.45
2018-07-25T02:32:20.644Z,917.47
2018-07-25T02:33:20.602Z,917.48
2018-07-25T02:34:20.572Z,917.49
2018-07-25T02:35:20.545Z,917.52
2018-07-25T02:36:20.516Z,917.46
2018-07-25T02:37:20.469Z,917.46
2018-07-25T02:38:20.441Z,917.43
2018-07-25T02:39:20.415Z,917.47
2018-07-25T02:40:20.379Z,917.44
2018-07-25T02:41:20.344Z,917.43
2018-07-25T02:42:20.328Z,917.45
2018-07-25T02:43:20.273Z,917.44
2018-07-25T02:44:20.239Z,917.44
2018-07-25T02:45:20.208Z,917.47
2018-07-25T02:47:20.154Z,917.48
2018-07-25T02:48:20.119Z,917.49
2018-07-25T02:49:20.082Z,917.49
2018-07-25T02:50:20.054Z,917.51
2018-07-25T02:51:20.027Z,917.48
2018-07-25T02:52:19.988Z,917.48
2018-07-25T02:53:19.969Z,917.49
2018-07-25T02:54:19.923Z,917.51
2018-07-25T02:55:19.902Z,917.50
2018-07-25T02:56:19.873Z,917.52
2018-07-25T02:57:19.831Z,917.56
2018-07-25T02:58:19.810Z,917.67
2018-07-25T02:59:19.767Z,917.70
2018-07-25T03:00:19.754Z,917.70
2018-07-25T03:01:19.708Z,917.69
2018-07-25T03:02:19.659Z,917.70
2018-07-25T03:03:19.638Z,917.69
2018-07-25T03:04:19.597Z,917.67
2018-07-25T03:05:19.572Z,917.66
2018-07-25T03:06:19.555Z,917.73
2018-07-25T03:07:19.499Z,917.71
2018-07-25T03:08:19.461Z,917.70
2018-07-25T03:09:19.451Z,917.68
2018-07-25T03:10:19.412Z,917.69
2018-07-25T03:11:19.376Z,917.72
2018-07-25T03:12:19.519Z,917.70
2018-07-25T03:13:19.306Z,917.69
2018-07-25T03:14:19.273Z,917.71
2018-07-25T03:15:19.244Z,917.73
2018-07-25T03:16:19.209Z,917.75
2018-07-25T03:17:19.202Z,917.75
2018-07-25T03:18:19.153Z,917.77
2018-07-25T03:19:19.112Z,917.79
2018-07-25T03:20:19.076Z,917.82
2018-07-25T03:21:19.057Z,917.82
2018-07-25T03:22:19.039Z,917.84
2018-07-25T03:23:18.979Z,917.85
2018-07-25T03:24:18.960Z,917.75
2018-07-25T03:25:18.922Z,917.74
2018-07-25T03:26:18.884Z,917.73
2018-07-25T03:27:18.858Z,917.73
2018-07-25T03:28:18.813Z,917.71
2018-07-25T03:29:18.798Z,917.69
2018-07-25T03:30:18.768Z,917.72
2018-07-25T03:31:18.735Z,917.74
2018-07-25T03:32:18.687Z,917.70
2018-07-25T03:33:18.652Z,917.70
2018-07-25T03:34:18.632Z,917.70
2018-07-25T03:35:18.619Z,917.71
2018-07-25T03:36:18.560Z,917.70
2018-07-25T03:37:18.554Z,917.69
2018-07-25T03:38:18.500Z,917.69
2018-07-25T03:39:18.464Z,917.68
2018-07-25T03:40:18.421Z,917.66
2018-07-25T03:41:18.403Z,917.67
2018-07-25T03:42:18.387Z,917.66
2018-07-25T03:43:18.337Z,917.68
2018-07-25T03:44:18.294Z,917.69
2018-07-25T03:45:18.269Z,917.70
2018-07-25T03:46:18.267Z,917.69
2018-07-25T03:47:18.218Z,917.67
2018-07-25T03:48:18.172Z,917.70
2018-07-25T03:49:18.152Z,917.64
2018-07-25T03:50:18.111Z,917.66
2018-07-25T03:51:18.066Z,917.65
2018-07-25T03:52:18.047Z,917.65
2018-07-25T03:53:18.000Z,917.64
2018-07-25T03:54:17.975Z,917.63
2018-07-25T03:55:17.940Z,917.63
2018-07-25T03:56:17.906Z,917.64
2018-07-25T03:57:17.892Z,917.63
2018-07-25T03:58:17.843Z,917.61
2018-07-25T03:59:17.810Z,917.64
2018-07-25T04:00:17.789Z,917.61
2018-07-25T04:01:17.746Z,917.63
2018-07-25T04:02:17.724Z,917.61
2018-07-25T04:03:17.692Z,917.62
2018-07-25T04:04:17.644Z,917.59
2018-07-25T04:05:17.634Z,917.54
2018-07-25T04:06:17.590Z,917.57
2018-07-25T04:07:17.559Z,917.55
2018-07-25T04:08:17.557Z,917.59
2018-07-25T04:09:17.653Z,917.57
2018-07-25T04:10:17.457Z,917.57
2018-07-25T04:11:17.434Z,917.54
2018-07-25T04:12:17.393Z,917.49
2018-07-25T04:13:17.370Z,917.49
2018-07-25T04:14:17.336Z,917.47
2018-07-25T04:15:17.291Z,917.46
2018-07-25T04:16:17.271Z,917.47
2018-07-25T04:17:17.222Z,917.42
2018-07-25T04:18:17.205Z,917.39
2018-07-25T04:19:17.168Z,917.38
2018-07-25T04:20:17.286Z,917.34
2018-07-25T04:21:17.104Z,917.34
2018-07-25T04:22:17.119Z,917.30
2018-07-25T04:23:17.079Z,917.27
2018-07-25T04:24:17.024Z,917.28
2018-07-25T04:25:16.962Z,917.27
2018-07-25T04:26:16.949Z,917.25
2018-07-25T04:27:16.912Z,917.23
2018-07-25T04:28:16.875Z,917.22
2018-07-25T04:29:16.849Z,917.24
2018-07-25T04:30:16.803Z,917.23
2018-07-25T04:31:16.777Z,917.20
2018-07-25T04:32:16.741Z,917.22
2018-07-25T04:33:16.705Z,917.19
2018-07-25T04:34:16.684Z,917.19
2018-07-25T04:35:16.647Z,917.14
2018-07-25T04:36:16.606Z,917.16
2018-07-25T04:37:16.754Z,917.13
2018-07-25T04:38:16.543Z,917.11
2018-07-25T04:39:16.511Z,917.12
2018-07-25T04:40:16.485Z,917.13
2018-07-25T04:41:16.452Z,917.14
2018-07-25T04:42:16.416Z,917.12
2018-07-25T04:43:16.388Z,917.14
2018-07-25T04:44:16.348Z,917.19
2018-07-25T04:45:16.319Z,917.13
2018-07-25T04:46:16.369Z,917.12
2018-07-25T04:47:16.256Z,917.12
2018-07-25T04:48:16.223Z,917.10
2018-07-25T04:49:16.194Z,917.08
2018-07-25T04:50:16.159Z,917.09
2018-07-25T04:51:16.129Z,917.10
2018-07-25T04:52:16.093Z,917.06
2018-07-25T04:53:16.410Z,917.06
2018-07-25T04:54:16.029Z,917.10
2018-07-25T04:55:15.994Z,917.11
2018-07-25T04:56:16.030Z,917.09
2018-07-25T04:57:15.936Z,917.04
2018-07-25T04:58:15.893Z,917.05
2018-07-25T04:59:15.863Z,917.03
2018-07-25T05:00:15.830Z,917.01
2018-07-25T05:01:15.800Z,916.99
2018-07-25T05:02:15.774Z,917.00
2018-07-25T05:03:15.754Z,916.94
2018-07-25T05:04:15.700Z,916.98
2018-07-25T05:05:15.667Z,916.95
2018-07-25T05:06:15.642Z,916.96
2018-07-25T05:07:15.640Z,916.93
2018-07-25T05:08:15.567Z,916.89
2018-07-25T05:09:15.546Z,916.93
2018-07-25T05:10:15.504Z,916.88
2018-07-25T05:11:15.468Z,916.86
2018-07-25T05:12:15.429Z,916.91
2018-07-25T05:13:15.407Z,916.85
2018-07-25T05:14:15.366Z,916.85
2018-07-25T05:15:15.336Z,916.88
2018-07-25T05:16:15.313Z,916.88
2018-07-25T05:17:15.288Z,916.85
2018-07-25T05:18:15.262Z,916.86
2018-07-25T05:19:15.203Z,916.84
2018-07-25T05:20:15.203Z,916.84
2018-07-25T05:21:15.138Z,916.86
2018-07-25T05:22:15.104Z,916.86
2018-07-25T05:23:15.140Z,916.87
2018-07-25T05:24:15.044Z,916.92
2018-07-25T05:25:15.011Z,916.94
2018-07-25T05:26:14.976Z,916.92
2018-07-25T05:27:14.954Z,916.93
2018-07-25T05:28:14.905Z,916.89
2018-07-25T05:29:14.889Z,916.90
2018-07-25T05:30:14.918Z,916.89
2018-07-25T05:31:14.816Z,916.91
2018-07-25T05:32:14.779Z,916.88
2018-07-25T05:33:14.770Z,916.86
2018-07-25T05:34:14.712Z,916.85
2018-07-25T05:35:14.723Z,916.83
2018-07-25T05:36:14.702Z,916.83
2018-07-25T05:37:14.620Z,916.86
2018-07-25T05:38:14.590Z,916.85
2018-07-25T05:39:14.555Z,916.85
2018-07-25T05:40:14.534Z,916.86
2018-07-25T05:41:14.484Z,916.88
2018-07-25T05:42:14.467Z,916.89
2018-07-25T05:43:14.414Z,916.90
2018-07-25T05:44:14.391Z,916.90
2018-07-25T05:45:14.365Z,916.87
2018-07-25T05:46:14.327Z,916.90
2018-07-25T05:47:14.300Z,916.90
2018-07-25T05:48:14.260Z,916.87
2018-07-25T05:49:14.224Z,916.87
2018-07-25T05:50:14.186Z,916.86
2018-07-25T05:51:14.164Z,916.86
2018-07-25T05:52:14.127Z,916.87
2018-07-25T05:53:14.099Z,916.85
2018-07-25T05:54:14.057Z,916.83
2018-07-25T05:55:14.023Z,916.81
2018-07-25T05:56:13.989Z,916.89
2018-07-25T05:57:13.973Z,916.84
2018-07-25T05:58:13.933Z,916.85
2018-07-25T05:59:13.897Z,916.84
2018-07-25T06:00:13.889Z,916.83
2018-07-25T06:01:13.832Z,916.85
2018-07-25T06:02:13.798Z,916.80
2018-07-25T06:03:13.781Z,916.77
2018-07-25T06:04:13.739Z,916.78
2018-07-25T06:05:13.693Z,916.81
2018-07-25T06:06:13.755Z,916.75
2018-07-25T06:07:13.633Z,916.73
2018-07-25T06:08:13.598Z,916.78
2018-07-25T06:09:13.570Z,916.76
2018-07-25T06:10:13.537Z,916.77
2018-07-25T06:11:13.510Z,916.73
2018-07-25T06:12:13.469Z,916.73
2018-07-25T06:13:13.452Z,916.76
2018-07-25T06:14:13.439Z,916.77
2018-07-25T06:15:13.366Z,916.77
2018-07-25T06:16:13.329Z,916.80
2018-07-25T06:17:13.304Z,916.83
2018-07-25T06:18:13.262Z,916.81
2018-07-25T06:19:13.246Z,916.82
2018-07-25T06:20:13.200Z,916.82
2018-07-25T06:21:13.177Z,916.82
2018-07-25T06:22:13.152Z,916.83
2018-07-25T06:23:13.308Z,916.82
2018-07-25T06:24:13.085Z,916.82
2018-07-25T06:25:13.047Z,916.79
2018-07-25T06:26:13.002Z,916.89
2018-07-25T06:27:12.993Z,916.84
2018-07-25T06:28:12.952Z,916.86
2018-07-25T06:29:12.912Z,916.86
2018-07-25T06:30:12.868Z,916.88
2018-07-25T06:31:12.912Z,916.87
2018-07-25T06:32:12.803Z,916.83
2018-07-25T06:33:12.777Z,916.82
2018-07-25T06:34:12.742Z,916.82
2018-07-25T06:35:12.710Z,916.78
2018-07-25T06:36:12.676Z,916.80
2018-07-25T06:37:12.639Z,916.80
2018-07-25T06:38:12.601Z,916.76
2018-07-25T06:39:12.578Z,916.75
2018-07-25T06:40:12.537Z,916.76
2018-07-25T06:41:12.511Z,916.70
2018-07-25T06:42:12.475Z,916.70
2018-07-25T06:43:12.465Z,916.71
2018-07-25T06:44:12.435Z,916.65
2018-07-25T06:45:12.379Z,916.64
2018-07-25T06:46:12.335Z,916.62
2018-07-25T06:47:12.306Z,916.59
2018-07-25T06:48:12.281Z,916.57
2018-07-25T06:49:12.241Z,916.58
2018-07-25T06:50:12.406Z,916.61
2018-07-25T06:51:12.187Z,916.62
2018-07-25T06:52:12.149Z,916.65
2018-07-25T06:53:12.111Z,916.65
2018-07-25T06:54:12.078Z,916.65
2018-07-25T06:55:12.045Z,916.63
2018-07-25T06:56:12.361Z,916.64
2018-07-25T06:57:12.023Z,916.63
2018-07-25T06:58:11.954Z,916.65
2018-07-25T06:59:11.904Z,916.65
2018-07-25T07:00:11.884Z,916.67
2018-07-25T07:01:11.849Z,916.69
2018-07-25T07:02:11.815Z,916.70
2018-07-25T07:03:11.782Z,916.74
2018-07-25T07:04:11.743Z,916.72
2018-07-25T07:05:11.713Z,916.72
2018-07-25T07:06:11.672Z,916.73
2018-07-25T07:07:11.649Z,916.74
2018-07-25T07:08:11.610Z,916.75
2018-07-25T07:09:11.582Z,916.75
2018-07-25T07:10:11.549Z,916.78
2018-07-25T07:11:11.512Z,916.80
2018-07-25T07:12:11.510Z,916.80
2018-07-25T07:13:11.440Z,916.84
2018-07-25T07:14:11.416Z,916.88
2018-07-25T07:15:11.397Z,916.86
2018-07-25T07:16:11.345Z,916.87
2018-07-25T07:17:11.321Z,916.92
2018-07-25T07:18:11.273Z,916.91
2018-07-25T07:19:11.256Z,916.91
2018-07-25T07:20:11.214Z,916.92
2018-07-25T07:21:11.180Z,916.92
2018-07-25T07:22:11.144Z,916.95
2018-07-25T07:23:11.115Z,916.98
2018-07-25T07:24:11.153Z,916.99
2018-07-25T07:25:11.046Z,917.00
2018-07-25T07:26:11.008Z,916.95
2018-07-25T07:27:10.974Z,916.96
2018-07-25T07:28:10.941Z,917.01
2018-07-25T07:29:10.911Z,917.02
2018-07-25T07:30:10.891Z,917.03
2018-07-25T07:31:10.847Z,917.01
2018-07-25T07:32:10.818Z,917.03
2018-07-25T07:33:10.784Z,917.04
2018-07-25T07:34:10.749Z,917.06
2018-07-25T07:35:10.748Z,917.09
2018-07-25T07:36:10.720Z,917.10
2018-07-25T07:37:10.706Z,917.13
2018-07-25T07:38:10.609Z,917.14
2018-07-25T07:39:10.577Z,917.15
2018-07-25T07:40:10.547Z,917.19
2018-07-25T07:41:10.514Z,917.17
2018-07-25T07:42:10.476Z,917.17
2018-07-25T07:43:10.448Z,917.15
2018-07-25T07:44:10.420Z,917.20
2018-07-25T07:45:10.385Z,917.16
2018-07-25T07:46:10.347Z,917.18
2018-07-25T07:47:10.316Z,917.20
2018-07-25T07:48:10.287Z,917.21
2018-07-25T07:49:10.251Z,917.20
2018-07-25T07:50:10.214Z,917.23
2018-07-25T07:51:10.175Z,917.22
2018-07-25T07:52:10.154Z,917.24
2018-07-25T07:53:10.104Z,917.30
2018-07-25T07:54:10.080Z,917.29
2018-07-25T07:55:10.046Z,917.29
2018-07-25T07:56:10.015Z,917.29
2018-07-25T07:57:09.979Z,917.33
2018-07-25T07:58:09.957Z,917.33
2018-07-25T07:59:09.908Z,917.34
2018-07-25T08:00:09.880Z,917.32
2018-07-25T08:01:09.837Z,917.33
2018-07-25T08:02:09.814Z,917.36
2018-07-25T08:03:09.887Z,917.42
2018-07-25T08:04:09.745Z,917.39
2018-07-25T08:05:09.705Z,917.39
2018-07-25T08:06:09.677Z,917.44
2018-07-25T08:07:09.642Z,917.47
2018-07-25T08:08:09.602Z,917.44
2018-07-25T08:09:09.578Z,917.39
2018-07-25T08:10:09.548Z,917.43
2018-07-25T08:11:09.506Z,917.45
2018-07-25T08:12:09.468Z,917.50
2018-07-25T08:13:09.436Z,917.46
2018-07-25T08:14:09.412Z,917.48
2018-07-25T08:15:09.374Z,917.52
2018-07-25T08:16:09.347Z,917.49
2018-07-25T08:17:09.312Z,917.47
2018-07-25T08:18:09.270Z,917.52
2018-07-25T08:19:09.245Z,917.53
2018-07-25T08:20:09.208Z,917.52
2018-07-25T08:21:09.193Z,917.56
2018-07-25T08:22:09.141Z,917.53
2018-07-25T08:23:09.104Z,917.58
2018-07-25T08:24:09.073Z,917.57
2018-07-25T08:25:09.041Z,917.56
2018-07-25T08:26:09.006Z,917.56
2018-07-25T08:27:08.987Z,917.55
2018-07-25T08:28:08.932Z,917.55
2018-07-25T08:29:08.898Z,917.51
2018-07-25T08:30:08.864Z,917.53
2018-07-25T08:31:08.841Z,917.57
2018-07-25T08:32:08.800Z,917.61
2018-07-25T08:33:08.784Z,917.59
2018-07-25T08:34:08.737Z,917.60
2018-07-25T08:35:08.696Z,917.59
2018-07-25T08:36:08.669Z,917.63
2018-07-25T08:37:08.630Z,917.64
2018-07-25T08:38:08.597Z,917.64
2018-07-25T08:39:08.575Z,917.68
2018-07-25T08:40:08.534Z,917.66
2018-07-25T08:41:08.575Z,917.65
2018-07-25T08:42:08.470Z,917.68
2018-07-25T08:43:08.645Z,917.68
2018-07-25T08:44:08.406Z,917.71
2018-07-25T08:45:08.369Z,917.70
2018-07-25T08:46:08.335Z,917.70
2018-07-25T08:47:08.306Z,917.70
2018-07-25T08:48:08.260Z,917.72
2018-07-25T08:49:08.383Z,917.76
2018-07-25T08:50:08.196Z,917.77
2018-07-25T08:51:08.161Z,917.76
2018-07-25T08:52:08.139Z,917.75
2018-07-25T08:53:08.111Z,917.75
2018-07-25T08:54:08.068Z,917.81
2018-07-25T08:55:08.035Z,917.87
2018-07-25T08:56:07.992Z,917.85
2018-07-25T08:57:07.965Z,917.89
2018-07-25T08:58:07.937Z,917.91
2018-07-25T08:59:07.893Z,917.92
2018-07-25T09:00:07.859Z,917.91
2018-07-25T09:01:07.835Z,917.95
2018-07-25T09:02:07.794Z,917.96
2018-07-25T09:03:07.769Z,917.96
2018-07-25T09:04:07.722Z,917.98
2018-07-25T09:05:07.698Z,917.99
2018-07-25T09:06:07.657Z,917.98
2018-07-25T09:07:07.630Z,917.93
2018-07-25T09:08:07.595Z,917.93
2018-07-25T09:09:07.561Z,917.98
2018-07-25T09:10:07.529Z,918.01
2018-07-25T09:11:07.493Z,918.06
2018-07-25T09:12:07.452Z,918.02
2018-07-25T09:13:07.533Z,918.04
2018-07-25T09:14:07.402Z,918.04
2018-07-25T09:15:07.405Z,918.00
2018-07-25T09:17:07.296Z,918.07
2018-07-25T09:18:07.313Z,918.07
2018-07-25T09:19:07.247Z,918.09
2018-07-25T09:21:07.152Z,918.11
2018-07-25T09:22:07.123Z,918.11
2018-07-25T09:23:07.088Z,918.13
2018-07-25T09:24:07.058Z,918.15
2018-07-25T09:25:07.055Z,918.17
2018-07-25T09:26:06.995Z,918.19
2018-07-25T09:27:06.960Z,918.19
2018-07-25T09:28:06.919Z,918.19
2018-07-25T09:29:06.889Z,918.20
2018-07-25T09:30:06.860Z,918.25
2018-07-25T09:31:06.812Z,918.24
2018-07-25T09:32:06.793Z,918.24
2018-07-25T09:33:06.757Z,918.20
2018-07-25T09:34:06.760Z,918.23
2018-07-25T09:35:06.690Z,918.22
2018-07-25T09:36:06.647Z,918.24
2018-07-25T09:37:06.617Z,918.31
2018-07-25T09:38:06.601Z,918.29
2018-07-25T09:39:06.566Z,918.31
2018-07-25T09:40:06.519Z,918.30
2018-07-25T09:41:06.493Z,918.35
2018-07-25T09:42:06.448Z,918.36
2018-07-25T09:43:06.420Z,918.33
2018-07-25T09:44:06.386Z,918.34
2018-07-25T09:45:06.350Z,918.37
2018-07-25T09:46:06.318Z,918.41
2018-07-25T09:47:06.378Z,918.44
2018-07-25T09:48:06.242Z,918.46
2018-07-25T09:49:06.219Z,918.41
2018-07-25T09:50:06.183Z,918.47
2018-07-25T09:51:06.156Z,918.50
2018-07-25T09:52:06.107Z,918.47
2018-07-25T09:53:06.202Z,918.51
2018-07-25T09:54:06.076Z,918.48
2018-07-25T09:55:06.021Z,918.53
2018-07-25T09:56:05.979Z,918.55
2018-07-25T09:57:05.941Z,918.59
2018-07-25T09:58:05.917Z,918.63
2018-07-25T09:59:05.966Z,918.62
2018-07-25T10:00:05.870Z,918.62
2018-07-25T10:01:05.885Z,918.65
2018-07-25T10:02:05.846Z,918.64
2018-07-25T10:03:05.749Z,918.67
2018-07-25T10:04:05.705Z,918.68
2018-07-25T10:05:05.674Z,918.71
2018-07-25T10:06:05.643Z,918.75
2018-07-25T10:07:05.698Z,918.79
2018-07-25T10:08:05.586Z,918.79
2018-07-25T10:09:05.540Z,918.81
2018-07-25T10:10:05.512Z,918.82
2018-07-25T10:11:05.476Z,918.85
2018-07-25T10:12:05.450Z,918.84
2018-07-25T10:13:05.442Z,918.85
2018-07-25T10:14:05.376Z,918.89
2018-07-25T10:15:05.399Z,918.86
2018-07-25T10:16:05.409Z,918.87
2018-07-25T10:17:05.271Z,918.89
2018-07-25T10:18:05.247Z,918.89
2018-07-25T10:19:05.201Z,918.88
2018-07-25T10:20:05.207Z,918.92
2018-07-25T10:21:05.341Z,918.94
2018-07-25T10:22:05.136Z,918.99
2018-07-25T10:23:05.077Z,918.97
2018-07-25T10:24:05.094Z,919.01
2018-07-25T10:25:05.012Z,919.04
2018-07-25T10:26:05.000Z,919.02
2018-07-25T10:27:05.171Z,919.03
2018-07-25T10:28:04.953Z,919.01
2018-07-25T10:29:04.969Z,919.02
2018-07-25T10:30:04.843Z,919.00
2018-07-25T10:31:04.848Z,919.04
2018-07-25T10:32:04.807Z,919.04
2018-07-25T10:33:04.923Z,919.09
2018-07-25T10:34:05.920Z,919.07
2018-07-25T10:35:04.676Z,919.10
2018-07-25T10:36:04.641Z,919.09
2018-07-25T10:37:04.625Z,919.12
2018-07-25T10:38:04.860Z,919.16
2018-07-25T10:39:04.583Z,919.19
2018-07-25T10:40:04.514Z,919.20
2018-07-25T10:41:04.479Z,919.23
2018-07-25T10:42:04.449Z,919.23
2018-07-25T10:43:04.413Z,919.26
2018-07-25T10:45:04.347Z,919.29
2018-07-25T10:46:04.349Z,919.28
2018-07-25T10:47:04.277Z,919.31
2018-07-25T10:48:04.344Z,919.30
2018-07-25T10:49:04.208Z,919.33
2018-07-25T10:50:04.186Z,919.31
2018-07-25T10:51:04.146Z,919.31
2018-07-25T10:52:04.119Z,919.34
2018-07-25T10:53:04.085Z,919.36
2018-07-25T10:54:04.053Z,919.33
2018-07-25T10:55:04.265Z,919.38
2018-07-25T10:56:03.988Z,919.34
2018-07-25T10:57:03.962Z,919.34
2018-07-25T10:58:03.938Z,919.38
2018-07-25T10:59:03.929Z,919.34
2018-07-25T11:00:03.853Z,919.41
2018-07-25T11:01:03.817Z,919.42
2018-07-25T11:02:03.829Z,919.38
2018-07-25T11:03:03.761Z,919.44
2018-07-25T11:04:03.810Z,919.42
2018-07-25T11:05:03.698Z,919.42
2018-07-25T11:06:04.837Z,919.45
2018-07-25T11:07:03.865Z,919.49
2018-07-25T11:08:03.602Z,919.52
2018-07-25T11:09:03.570Z,919.52
2018-07-25T11:10:03.555Z,919.59
2018-07-25T11:11:03.512Z,919.58
2018-07-25T11:12:03.665Z,919.64
2018-07-25T11:13:03.437Z,919.64
2018-07-25T11:14:03.426Z,920.02
2018-07-25T11:15:03.386Z,920.04
2018-07-25T11:16:03.551Z,920.09
2018-07-25T11:17:03.336Z,920.17
2018-07-25T11:19:03.241Z,920.15
2018-07-25T11:20:03.439Z,920.29
2018-07-25T11:21:03.181Z,920.32
2018-07-25T11:22:03.213Z,920.30
2018-07-25T11:23:03.213Z,920.32
2018-07-25T11:26:03.022Z,920.47
2018-07-25T11:27:02.998Z,920.56
2018-07-25T11:28:02.964Z,920.78
2018-07-25T11:29:02.945Z,920.94
2018-07-25T11:30:02.916Z,921.23
2018-07-25T11:31:02.887Z,921.28
2018-07-25T11:32:02.851Z,920.77
2018-07-25T11:33:02.820Z,920.47
2018-07-25T11:34:02.803Z,920.41
2018-07-25T11:35:02.766Z,920.49
2018-07-25T11:36:02.734Z,920.58
2018-07-25T11:37:02.712Z,920.51
2018-07-25T11:38:03.068Z,920.40
2018-07-25T11:39:02.644Z,920.30
2018-07-25T11:40:02.620Z,920.26
2018-07-25T11:41:02.594Z,920.23
2018-07-25T11:42:02.574Z,920.30
2018-07-25T11:43:02.898Z,920.38
2018-07-25T11:44:02.506Z,920.40
2018-07-25T11:45:02.484Z,920.43
2018-07-25T11:46:02.461Z,920.45
2018-07-25T11:47:02.428Z,920.47
2018-07-25T11:48:02.392Z,920.50
2018-07-25T11:49:02.370Z,920.50
2018-07-25T11:50:02.356Z,920.52
2018-07-25T11:51:02.331Z,920.52
2018-07-25T11:52:02.299Z,920.54
2018-07-25T11:53:02.268Z,920.52
2018-07-25T11:54:02.251Z,920.56
2018-07-25T11:55:02.228Z,920.50
2018-07-25T11:56:02.180Z,920.55
2018-07-25T11:57:02.157Z,920.57
2018-07-25T11:58:02.132Z,920.55
2018-07-25T11:59:02.117Z,920.57
2018-07-25T12:00:02.095Z,920.58
2018-07-25T12:01:02.110Z,920.59
2018-07-25T12:02:02.029Z,920.62
2018-07-25T12:03:02.021Z,920.68
2018-07-25T12:04:01.991Z,920.63
2018-07-25T12:05:01.960Z,920.62
2018-07-25T12:06:01.932Z,920.61
2018-07-25T12:08:01.879Z,920.63
2018-07-25T12:09:01.854Z,920.63
2018-07-25T12:10:01.850Z,920.65
2018-07-25T12:11:01.807Z,920.62
2018-07-25T12:12:01.796Z,920.65
2018-07-25T12:13:01.777Z,920.69
2018-07-25T12:14:01.742Z,920.69
2018-07-25T12:15:01.721Z,920.66
2018-07-25T12:16:01.686Z,920.66
2018-07-25T12:17:01.664Z,920.69
2018-07-25T12:18:01.656Z,920.68
2018-07-25T12:19:01.822Z,920.70
2018-07-25T12:20:01.614Z,920.71
2018-07-25T12:21:01.593Z,920.73
2018-07-25T12:22:01.550Z,920.75
2018-07-25T12:23:01.736Z,920.75
2018-07-25T12:24:01.517Z,920.70
2018-07-25T12:25:01.634Z,920.67
2018-07-25T12:26:01.463Z,920.70
2018-07-25T12:27:01.948Z,920.55
2018-07-25T12:28:01.423Z,920.28
2018-07-25T12:29:01.408Z,920.64
2018-07-25T12:30:01.376Z,920.37
2018-07-25T12:31:01.357Z,920.31
2018-07-25T12:32:01.337Z,920.40
2018-07-25T12:33:01.700Z,920.57
2018-07-25T12:34:01.280Z,920.41
2018-07-25T12:35:01.336Z,920.50
2018-07-25T12:36:01.241Z,920.46
2018-07-25T12:37:01.210Z,920.39
2018-07-25T12:38:01.196Z,920.31
2018-07-25T12:39:01.314Z,920.16
2018-07-25T12:40:01.155Z,920.22
2018-07-25T12:41:01.123Z,920.17
2018-07-25T12:42:01.109Z,920.25